Regional Weather Synopsis
Issued by NWS Denver/Boulder, CO

Home | Current Version | Previous Version | Text Only | Print | Product List | Glossary On
Versions: 1 2 3 4 5 6 7 8 9 10 11 12 13 14 15 16 17 18 19 20 21 22 23 24 25 26 27 28 29 30 31 32 33 34 35 36 37 38 39 40 41 42 43 44 45 46 47 48 49 50
348
NZUS99 KBOU 190206
SYNBOU

Hot-Air Balloon Forecast for Colorado
National Weather Service Denver/Boulder, Colorado
1905 MST Thursday, January 18, 2018


* * * * * Northeast Colorado * * * * *

METAR KFNL 190156Z AUTO 16003KT 10SM CLR 07/M05 A2995 RMK AO2 SLP156
       T00721050
METAR KFNL 190056Z AUTO 17003KT 10SM CLR 07/M06 A2996 RMK AO2 SLP155
       T00721056
METAR KFNL 182356Z AUTO 00000KT 10SM CLR 10/M06 A2997 RMK AO2 SLP152
       T01001056 10150 20050 58002

METAR KGXY 190156Z AUTO 00000KT 10SM CLR 00/M07 A2996 RMK AO2 SLP197
       T00001072 FZRANO
METAR KGXY 190056Z AUTO 00000KT 10SM CLR 04/M07 A2996 RMK AO2 SLP189
       T00391067 TSNO
METAR KGXY 182356Z AUTO 00000KT 10SM CLR 09/M06 A2996 RMK AO2 SLP181
       T00891061 10128 20039 56006

METAR KLMO 190155Z AUTO 25004KT 10SM CLR 04/M05 A2998 RMK AO2
       T00371055
METAR KLMO 190135Z AUTO 29006KT 10SM CLR 04/M05 A2998 RMK AO2
       T00391055
METAR KLMO 190115Z AUTO 29004KT 10SM CLR 03/M06 A2999 RMK AO2
       T00261058

METAR KBDU 190154Z AUTO 00000KT 10SM CLR 08/M06 A2996 RMK AO2
METAR KBDU 190136Z AUTO 00000KT 10SM CLR 06/M05 A2997 RMK AO2
METAR KBDU 190112Z AUTO 00000KT 10SM CLR 08/M06 A2996 RMK AO2

METAR KEIK 190156Z AUTO 00000KT 10SM CLR 01/M06 A3001 RMK AO2
       T00051056
METAR KEIK 190138Z AUTO 00000KT 10SM CLR 02/M05 A3001 RMK AO2
       T00161054
METAR KEIK 190118Z AUTO 00000KT 10SM CLR 03/M06 A3001 RMK AO2
       T00261056

KBJC 182340Z 1900/1924 VRB05KT P6SM BKN200
     FM190300 24006KT P6SM BKN150
     FM191600 27012KT P6SM FEW120 SCT200
METAR KBJC 190045Z 00000KT 30SM SCT150 BKN200 12/M09 A2999
SPECI KBJC 182310Z COR 29005KT 50SM BKN200 17/M11 A2999
SPECI KBJC 182345Z 29005KT 50SM BKN200 17/M11 A2999

KDEN 182340Z 1900/2006 16007KT P6SM FEW120 BKN220
     FM190200 20011KT P6SM BKN200
     FM191600 24008KT P6SM FEW120 SCT200
     FM200200 19010KT P6SM FEW100 BKN180
METAR KDEN 190153Z 16011KT 10SM FEW120 BKN220 05/M11 A2996 RMK AO2
       SLP139 T00501106
METAR KDEN 190053Z 15008KT 10SM FEW120 BKN220 09/M11 A2997 RMK AO2
       SLP129 T00941111
METAR KDEN 182353Z 11004KT 10SM FEW120 BKN220 14/M12 A2998 RMK AO2
       SLP124 T01391117 10183 20133 53000

METAR KFTG 190153Z 17008KT 10SM SCT120 BKN200 05/M07 A2997
METAR KFTG 190053Z 17006KT 10SM SCT120 BKN200 07/M08 A2998
METAR KFTG 182353Z VRB04KT 10SM SCT120 BKN200 12/M09 A2999

KBKF 190100Z 1901/2007 21009KT 9999 SCT100 SCT230 QNH2983INS
      BECMG 1921/1922 26009KT 9999 SCT150 BKN200 QNH2980INS
      TX18/1922Z TNM01/1910Z
METAR KBKF 190158Z 18009KT 10SM BKN200 07/M11 A2997 RMK AO2A SLP140
        T00691113
METAR KBKF 190058Z 14010KT 10SM BKN200 09/M13 A2998 RMK AO2A SLP143
       T00881130
METAR KBKF 182358Z 11007KT 10SM BKN200 12/M12 A2999 RMK AO2A SLP138
       T01181118 10186 20118 53002

KAPA 182340Z 1900/1924 18006KT P6SM FEW100 BKN200
     FM190300 20008KT P6SM BKN200
     FM191600 24010KT P6SM FEW120 SCT200
METAR KAPA 190153Z COR 03012KT 10SM BKN220 08/M13 A2998 RMK AO2 SLP160
       T00781128 $
METAR KAPA 190153Z 03023KT 10SM BKN220 08/M13 A2998 RMK AO2 SLP160
       T00781128 $
METAR KAPA 190053Z 13006KT 10SM FEW100 BKN220 11/M15 A2999 RMK AO2
       SLP158 T01111150 $

METAR KMNH 190154Z AUTO 20009KT 10SM CLR 02/M13 A3007 RMK AO2
METAR KMNH 190130Z AUTO 20009KT 10SM CLR 02/M13 A3007 RMK AO2
METAR KMNH 190112Z AUTO 20006KT 10SM CLR 01/M13 A3007 RMK AO2

METAR KFMM 190155Z AUTO 26003KT 10SM CLR 07/M10 A2994 RMK AO2
       T00691098
METAR KFMM 190135Z AUTO 00000KT 10SM CLR 08/M10 A2995 RMK AO2
       T00761097
METAR KFMM 190115Z AUTO 00000KT 10SM CLR 05/M11 A2996 RMK AO2
       T00481106

METAR KSTK 190150Z AUTO 22007KT 10SM CLR 03/M05 A2991 RMK AO2
METAR KSTK 190130Z AUTO 22005KT 10SM CLR 03/M05 A2991 RMK AO2
METAR KSTK 190110Z AUTO 23005KT 10SM CLR 03/M06 A2991 RMK AO2

METAR KAKO 190153Z AUTO 23006KT 10SM CLR 08/M08 A2994 RMK AO2 SLP144
       T00831083
METAR KAKO 190053Z AUTO 21007KT 10SM CLR 08/M07 A2995 RMK AO2 SLP150
       T00831067
METAR KAKO 182353Z AUTO 22005KT 10SM CLR 09/M04 A2996 RMK AO2 SLP150
       T00941039 10150 20072 56001

METAR KLIC 190155Z AUTO 35005KT 10SM CLR M02/M10 A3000 RMK AO2 SLP203
       T10221100
METAR KLIC 190055Z AUTO 30003KT 10SM CLR 02/M13 A3001 RMK AO2 SLP190
       T00171128
METAR KLIC 182355Z AUTO 23005KT 10SM CLR 12/M13 A3001 RMK AO2 SLP169
       T01171133 10161 20117 53002

METAR KHEQ 190150Z AUTO 21006KT 10SM CLR 03/M05 A2991 RMK AO2
METAR KHEQ 190130Z AUTO 21006KT 10SM CLR 04/M05 A2992 RMK AO2
METAR KHEQ 190110Z AUTO 22004KT 10SM CLR 03/M05 A2992 RMK AO2

METAR K2V5 190155Z AUTO 24009KT 10SM CLR 07/M08 A2992 RMK AO2
METAR K2V5 190135Z AUTO 24007KT 10SM CLR 06/M07 A2992 RMK AO2
METAR K2V5 190115Z AUTO 23007KT 10SM CLR 06/M07 A2992 RMK AO2

METAR KITR 190153Z AUTO 22009KT 10SM CLR 04/M10 A2997 RMK AO2 SLP165
       T00391100
METAR KITR 190053Z AUTO 21009KT 10SM CLR 04/M11 A2998 RMK AO2 SLP167
       T00391106
METAR KITR 182353Z AUTO 20008KT 10SM CLR 07/M10 A2998 RMK AO2 SLP163
       T00671100 10167 20067 55002

Sunrise/Sunset for 01/18/2018
Fort Collins - 07:20:12 MST / 17:01:20 MST
Denver       - 07:17:38 MST / 17:03:04 MST
Sterling     - 07:13:03 MST / 16:53:40 MST

Denver/Boulder (KFTG) 01/19/18 01:52 UTC
Radar VAD winds      Height      Dir/Spd(kt)
                   6500 FT MSL...286/033

Denver/Boulder Aviation Discussion
Issued at 2157 UTC Thursday, January 18, 2018

.AVIATION...(For the 18Z TAFS through 18Z Friday afternoon)
Issued at 255 PM MST Thu Jan 18 2018
VFR conditions through the period. The normal diurnal wind
pattern is expected with wind speeds under 12 kts.


* * * * * Southeast Colorado * * * * *

METAR K4BM 190154Z AUTO 27005KT 10SM CLR 02/M20 A3027 RMK AO2
METAR K4BM 190136Z AUTO 27006KT 10SM CLR 03/M21 A3028 RMK AO2 LTG DSNT N
       AND NW
METAR K4BM 190112Z AUTO 27006KT 10SM CLR 03/M19 A3028 RMK AO2

METAR KAFF 190158Z AUTO 33007KT 10SM CLR M01/M15 A3005 RMK AO2 SLP214
       T10091152
METAR KAFF 190058Z AUTO 35008KT 10SM CLR 02/M14 A3005 RMK AO2 SLP208
       T00211145
METAR KAFF 182358Z AUTO 18004KT 10SM CLR 10/M16 A3005 RMK AO2 SLP184
       T00951159 10133 20095 53001

KCOS 182320Z 1900/1924 17007KT P6SM FEW200 BKN250
     FM190300 02006KT P6SM BKN250
     FM191200 35010KT P6SM BKN200
     FM191800 23010KT P6SM FEW110 BKN200
METAR KCOS 190154Z 34006KT 10SM FEW200 SCT240 03/M13 A3005 RMK AO2
       SLP209 T00331133
METAR KCOS 190054Z 12003KT 10SM FEW200 BKN240 09/M13 A3006 RMK AO2
       SLP189 T00891128
METAR KCOS 182354Z 12003KT 10SM FEW200 BKN240 10/M13 A3005 RMK AO2
       SLP188 T01001128 10144 20100 53001

METAR KABH 190156Z AUTO 25004KT A3004 RMK AO2 SLPNO $
METAR KABH 190056Z AUTO 21004KT A3004 RMK AO2 SLPNO $
METAR KABH 182356Z AUTO 00000KT A3004 RMK AO2 SLPNO 55000 $

METAR KFLY 190155Z AUTO 27005KT 10SM CLR 00/M15 A3007 RMK AO2
       T10041151
METAR KFLY 190135Z AUTO 29006KT 10SM CLR 00/M15 A3008 RMK AO2
       T10021151
METAR KFLY 190115Z AUTO 28004KT 10SM CLR 01/M15 A3007 RMK AO2
       T00111155

KFCS 182105Z 1821/2003 16009KT 9999 FEW200 QNH2998INS
     BECMG 1900/1901 VRB06KT 9999 FEW150 QNH2984INS
     BECMG 1914/1915 25012G20KT 9999 SCT150 QNH2979INS
     BECMG 1922/1923 34012KT 9999 SCT200 QNH2980INS TX17/1921Z
     TNM05/1911Z
METAR KFCS 190158Z 00000KT 10SM CLR 07/M13 A3003 RMK AO2A SLP142 ALSTG
        DATA ESTMD SLP DATA ESTMD T00661126 $
METAR KFCS 190058Z AUTO 00000KT 10SM CLR 10/M13 A3003 RMK AO2 SLP199
       T00961129 $
METAR KFCS 182358Z AUTO 10004KT 10SM CLR 10/M13 A3003 RMK AO2 SLP193
       T01001133 10145 20100 53001 $

KPUB 182320Z 1900/1924 12004KT P6SM BKN250
     FM190300 30006KT P6SM SCT250
     FM191200 28006KT P6SM BKN200
     FM191800 27010KT P6SM FEW120 BKN200
METAR KPUB 190153Z 01003KT 10SM CLR 02/M12 A2999 RMK AO2 SLP185
       T00221117
METAR KPUB 190053Z 06008KT 10SM CLR 09/M12 A2999 RMK AO2 SLP173
       T00941117
METAR KPUB 182353Z 09006KT 10SM CLR 12/M11 A2998 RMK AO2 SLP163
       T01221106 10167 20078 55004

METAR KVTP 190200Z AUTO 22022KT 10SM CLR M01/M15 RMK AO2
METAR KVTP 190141Z AUTO 10SM CLR M01/M15 RMK AO2
METAR KVTP 190123Z AUTO 22021KT 10SM CLR M01/M15 RMK AO2

METAR KTAD 190154Z AUTO 26009KT 10SM CLR 05/M13 A3004 RMK AO2 SLP184
       T00501128
METAR KTAD 190054Z AUTO 24009KT 10SM CLR 06/M13 A3004 RMK AO2 SLP178
       T00611133
METAR KTAD 182354Z AUTO 17006KT 10SM CLR 11/M13 A3003 RMK AO2 SLP163
       T01061128 10167 20106 56005

METAR KLHX 190153Z AUTO 01003KT 10SM CLR 08/M13 A2998 RMK AO2 SLP161
       T00781128
METAR KLHX 190053Z AUTO 00000KT 10SM CLR 11/M12 A2999 RMK AO2 SLP157
       T01061122
METAR KLHX 182353Z AUTO 00000KT 10SM CLR 13/M12 A2998 RMK AO2 SLP148
       T01281122 10161 20061 56008

METAR KLAA 190153Z AUTO 00000KT CLR 01/M13 A2997 RMK AO2 SLP175
       T00061133 $
METAR KLAA 190053Z AUTO 14004KT CLR 01/M13 A2997 RMK AO2 SLP174
       T00111133 $
METAR KLAA 182353Z AUTO 08003KT 10SM CLR 10/M11 A2997 RMK AO2 SLP159
       T01001111 10161 20067 55006

METAR KSPD 190156Z AUTO 23009KT 01/M17 A3000 RMK AO1 SLP178
       T00111172
METAR KSPD 190056Z AUTO 22007KT 04/M17 A3000 RMK AO1 SLP179
       T00391172
METAR KSPD 182356Z AUTO 22005KT 08/M17 A3000 RMK AO1 SLP167 T00831167
       10178 20083 55005

Sunrise/Sunset for 01/18/2018
Burlington - 07:05:48 MST / 16:53:23 MST
Pueblo     - 07:12:35 MST / 17:05:22 MST
Lamar      - 07:04:08 MST / 16:57:48 MST

Pueblo Aviation Discussion
Issued at 2225 UTC Thursday, January 18, 2018

.AVIATION...(For the 00Z TAFS through 00Z Friday evening)
Issued at 324 PM MST Thu Jan 18 2018
Upper ridge over Colorado will weaken tonight and Friday, allowing
southwest flow to increase over the region.  The flow will be mild
and dry so no low clouds or precipitation are expected.  Increasing
southwest winds will begin in the high country late tonight,
spreading to the adjacent plains by Friday afternoon.  Gusts to 40
mph will be possible in the higher terrain Friday with gusts to
around 30 mph possible across the adjacent lower elevations.  VFR
all areas next 24 hours, including the KCOS, KPUB and KALS
terminals.


* * * * * Northwest Colorado * * * * *

METAR KCAG 190153Z AUTO 12003KT 10SM CLR M01/M08 A3014 RMK AO2 SLP257
       T10061078
METAR KCAG 190053Z AUTO 07006KT 10SM CLR 02/M08 A3014 RMK AO2 SLP248
       T00171078
METAR KCAG 182353Z AUTO 09009KT 10SM CLR 04/M08 A3015 RMK AO2 SLP245
       T00441083 10056 21033 56014

METAR KHDN 190156Z AUTO 10011KT 10SM CLR A3016 RMK AO2 SLPNO FZRANO
       $
METAR KHDN 190056Z AUTO 12010KT 10SM CLR A3016 RMK AO2 SLPNO FZRANO
       $
METAR KHDN 182356Z AUTO 11007KT 10SM CLR A3017 RMK AO2 SLPNO 56014
       FZRANO $


METAR K33V 190155Z AUTO 19005KT 10SM CLR M02/M11 A3017 RMK AO1
METAR K33V 190135Z AUTO 19007KT 10SM CLR M01/M12 A3017 RMK AO1
METAR K33V 190115Z AUTO 17007KT 10SM CLR M01/M11 A3017 RMK AO1

METAR KEEO 190153Z AUTO VRB03KT 10SM CLR 00/M05 A3014 RMK AO2 SLP237
       T00001050
METAR KEEO 190053Z AUTO 00000KT 10SM CLR 02/M04 A3014 RMK AO2 SLP228
       T00171044
METAR KEEO 182353Z AUTO 30003KT 10SM CLR 06/M06 A3014 RMK AO2 SLP212
       T00611056 10100 21006 56011

METAR K20V 190154Z AUTO 00000KT 10SM CLR M06/M10 A3024 RMK AO2
METAR K20V 190130Z AUTO 00000KT 10SM CLR M06/M10 A3023 RMK AO2
METAR K20V 190112Z AUTO 00000KT 10SM CLR M04/M10 A3023 RMK AO2

METAR K0CO 190148Z AUTO 29011G17KT 10SM CLR M02/M08 A3029 RMK AO2
METAR K0CO 190130Z AUTO 30010G18KT 251V331 10SM CLR M03/M09 A3030 RMK
       AO2
METAR K0CO 190112Z AUTO 29015G20KT 281V051 10SM CLR M03/M10 A3030 RMK
       AO2

KGJT 182332Z 1900/1924 00000KT P6SM FEW150 FEW250
     FM190600 11004KT P6SM FEW150 FEW250
     FM191800 23004KT P6SM FEW130 FEW250
     FM192000 26008KT P6SM FEW130 FEW250
METAR KGJT 190153Z 01005KT 10SM CLR 01/M07 A3017 RMK AO2 SLP243
       T00111072 $
METAR KGJT 190053Z 34006KT 10SM CLR 03/M08 A3018 RMK AO2 SLP237
       T00331078 $
METAR KGJT 182353Z 29003KT 10SM CLR 06/M08 A3019 RMK AO2 SLP231
       T00611083 10089 20028 56010 $

KRIL 182332Z 1900/1924 00000KT P6SM FEW140 FEW200
     FM192000 24007KT P6SM FEW110 FEW250
METAR KRIL 190153Z AUTO 00000KT 10SM CLR M01/M06 A3019 RMK AO2 SLP256
       T10061056
METAR KRIL 190053Z AUTO 21005KT 10SM CLR 02/M06 A3019 RMK AO2 SLP251
       T00171061
METAR KRIL 182353Z AUTO 00000KT 10SM CLR 03/M06 A3019 RMK AO2 SLP245
       T00331061 10072 21006 56013

METAR K5SM 190154Z AUTO 21007KT 10SM CLR M02/M12 A3030 RMK AO2
METAR K5SM 190130Z AUTO 21008KT 10SM CLR M02/M12 A3030 RMK AO2
METAR K5SM 190112Z AUTO 21007KT 10SM CLR M02/M12 A3030 RMK AO2

KEGE 182332Z 1900/1924 26004KT P6SM FEW130 SCT250
     FM192000 23008KT P6SM FEW090 FEW250 AMD LTD TO CLD VIS AND
      WIND 1906/1914
METAR KEGE 190156Z 00000KT 10SM CLR M02/M09 A3023 RMK AO2 SLP308
       T10221094
METAR KEGE 190056Z 09003KT 10SM CLR 00/M09 A3022 RMK AO2 SLP302
       T00001094
METAR KEGE 182356Z 27005KT 10SM CLR 02/M11 A3023 RMK AO2 SLP296
       T00221106 10044 21061 56011

KASE 182332Z 1900/1924 32006KT P6SM FEW130 SCT250
     FM190200 20007KT P6SM FEW130 SCT250
     FM192000 22008KT P6SM FEW080 FEW250
METAR KASE 190153Z 20005KT 10SM CLR M01/M11 A3018 RMK AO2 SLP234
       T10111111
METAR KASE 190053Z 21006KT 10SM CLR M01/M09 A3019 RMK AO2 SLP231
       T10111094
METAR KASE 182353Z 00000KT 10SM CLR 02/M09 A3019 RMK AO2 SLP223
       T00171089 10067 21006 55004


METAR KLXV 190153Z AUTO 01006KT 10SM CLR M04/M12 A3022 RMK AO2 SLP237
       T10391122
METAR KLXV 190053Z AUTO 05004KT 10SM CLR M04/M13 A3022 RMK AO2 SLP228
       T10391133
METAR KLXV 182353Z AUTO 01005KT 10SM CLR 02/M14 A3022 RMK AO2 SLP195
       T00171139 10061 21006 58001

Sunrise/Sunset for 01/18/2018
Rangely           - 07:33:49 MST / 17:17:24 MST
Grand Junction    - 07:30:22 MST / 17:19:03 MST
Steamboat Springs - 07:27:01 MST / 17:08:33 MST

Grand Junction (KGJX) 01/19/18 01:46 UTC
Radar VAD winds      Height      Dir/Spd(kt)
                  11000 FT MSL...213/012
                  10400 FT MSL...227/009

Grand Junction Aviation Discussion
Issued at 2257 UTC Thursday, January 18, 2018

.AVIATION...(For the 00Z TAFS through 00Z Saturday Evening)
Issued at 357 PM MST Thu Jan 18 2018
High clouds will continue to sweep over the area during the next
24 hours as Pacific moisture streams over the collapsing ridge.
However, this will not impact TAF sites and VFR conditions with
CIGS above ILS breakpoints are expected to hold through 00Z
Friday.


* * * * * Southwest Colorado * * * * *

METAR KAJZ 190155Z AUTO 08003KT 10SM CLR 03/M09 A3018 RMK AO2
       T00281090
METAR KAJZ 190135Z AUTO 00000KT 10SM CLR 03/M09 A3018 RMK AO2
       T00321091
METAR KAJZ 190115Z AUTO 00000KT 10SM CLR 05/M09 A3017 RMK AO2
       T00531095

KMTJ 182332Z 1900/1924 00000KT P6SM FEW150 FEW250
     FM190200 15007KT P6SM FEW150 FEW250
     FM192000 27007KT P6SM FEW120 FEW250
     FM192300 23009KT P6SM FEW120 FEW250
METAR KMTJ 190153Z AUTO 13006KT 10SM CLR M02/M09 A3020 RMK AO2 SLP248
       T10171089
METAR KMTJ 190053Z AUTO 30003KT 10SM CLR 04/M09 A3019 RMK AO2 SLP231
       T00391089
METAR KMTJ 182353Z AUTO 33005KT 10SM CLR 06/M09 A3020 RMK AO2 SLP232
       T00561089 10089 20022 56013

METAR KGUC 190156Z AUTO 00000KT 10SM CLR M06/M11 A3025 RMK AO2 SLP337
       T10561111 FZRANO
METAR KGUC 190056Z AUTO 00000KT 10SM CLR M03/M10 A3024 RMK AO2 SLP332
       T10331100 FZRANO
METAR KGUC 182356Z AUTO 00000KT 10SM CLR 00/M11 A3024 RMK AO2 SLP312
       T00001111 10028 21111 56009 FZRANO

METAR K7BM 190154Z AUTO 28005KT 10SM 07/M13 A3021 RMK AO2
METAR K7BM 190130Z AUTO 27009KT 10SM 07/M13 A3021 RMK AO2
METAR K7BM 190112Z AUTO 25007KT 10SM 07/M13 A3022 RMK AO2

METAR KAEJ 190155Z AUTO 21004KT 10SM CLR M01/M16 A3016 RMK AO2
       T10111162
METAR KAEJ 190135Z AUTO 24004KT 10SM CLR 01/M17 A3016 RMK AO2
       T00061167
METAR KAEJ 190115Z AUTO 15005KT 10SM CLR 00/M17 A3015 RMK AO2
       T10021166

METAR KANK 190155Z AUTO 24009G15KT 10SM CLR 07/M15 A3021 RMK AO1
       T00691152
METAR KANK 190135Z AUTO 25011KT 10SM CLR 07/M15 A3021 RMK AO1
       T00711150
METAR KANK 190115Z AUTO 24010G16KT 10SM CLR 07/M15 A3020 RMK AO1
       T00731151

METAR KMYP 190150Z AUTO 26025G29KT 10SM CLR M03/M15 A3039 RMK AO2
METAR KMYP 190135Z AUTO 25022G26KT 10SM CLR M04/M16 A3039 RMK AO2
METAR KMYP 190111Z AUTO 24023KT 10SM CLR M05/M17 A3038 RMK AO2

METAR KAIB 190135Z AUTO 00000KT 10SM CLR 05/M09 A3022 RMK AO2
METAR KAIB 190115Z AUTO 00000KT 10SM CLR 06/M09 A3022 RMK AO2
METAR KAIB 190055Z AUTO 00000KT 10SM CLR 06/M09 A3021 RMK AO2

KTEX 182332Z 1900/1924 00000KT P6SM FEW120 FEW250
     FM190200 13006KT P6SM FEW120 FEW250
     FM191700 18007KT P6SM FEW100 FEW250
     FM192000 21009KT P6SM FEW080 FEW250
METAR KTEX 190155Z AUTO 14006KT 10SM CLR 02/M10 A3025 RMK AO2
       T00201105
METAR KTEX 190135Z AUTO 13009KT 10SM CLR 02/M10 A3025 RMK AO2
       T00161097
METAR KTEX 190115Z AUTO 00000KT 10SM CLR 03/M10 A3025 RMK AO2
       T00291102

METAR K04V 190155Z AUTO 36005KT 10SM CLR M04/M16 A3021 RMK AO2
METAR K04V 190133Z AUTO 00000KT 10SM CLR M03/M16 A3021 RMK AO2
METAR K04V 190111Z AUTO 06003KT 10SM CLR M03/M16 A3021 RMK AO2

METAR KCEZ 190153Z AUTO 06007KT 10SM CLR M01/M07 A3021 RMK AO2 SLP258
       T10111072
METAR KCEZ 190053Z AUTO 00000KT 10SM CLR M01/M08 A3020 RMK AO2 SLP255
       T10061083
METAR KCEZ 182353Z AUTO 23005KT 10SM CLR 06/M07 A3020 RMK AO2 SLP241
       T00611067 10089 20033 56011

KDRO 182332Z 1900/1924 23004KT P6SM FEW140 SCT250
     FM190700 05004KT P6SM FEW140 FEW250
     FM191800 13004KT P6SM FEW140 FEW250
METAR KDRO 190153Z AUTO 00000KT 10SM CLR 02/M07 A3021 RMK AO2 SLP280
       T00171072
METAR KDRO 190053Z AUTO 25004KT 10SM CLR 03/M07 A3020 RMK AO2 SLP266
       T00331072
METAR KDRO 182353Z AUTO 20004KT 10SM CLR 06/M07 A3020 RMK AO2 SLP258
       T00611067 10083 20011 55003

METAR KPSO 190155Z AUTO 00000KT 10SM CLR M01/M09 A3022 RMK AO2
       T10081086
METAR KPSO 190135Z AUTO 00000KT 10SM CLR 00/M08 A3022 RMK AO2
       T10051083
METAR KPSO 190115Z AUTO 00000KT 10SM CLR 00/M09 A3022 RMK AO2
       T00011086

METAR KCPW 190149Z AUTO 00000KT 10SM SCT110 00/M14 A3037 RMK AO2
METAR KCPW 190131Z AUTO 32003KT 10SM SCT110 00/M14 A3037 RMK AO2
METAR KCPW 190106Z AUTO 00000KT 10SM CLR 00/M14 A3037 RMK AO2

KALS 182320Z 1900/1924 VRB05KT P6SM BKN200
     FM192100 23007KT P6SM FEW100 BKN200
METAR KALS 190152Z AUTO 00000KT 10SM CLR M05/M19 A3019 RMK AO2 SLP299
       T10501194
METAR KALS 190052Z AUTO 29004KT 10SM CLR 01/M18 A3019 RMK AO2 SLP278
       T00061178
METAR KALS 182352Z AUTO 00000KT 10SM CLR 06/M17 A3018 RMK AO2 SLP261
       T00611167 10072 20000 55004

Sunrise/Sunset for 01/18/2018
Vail    - 07:22:59 MST / 17:08:52 MST
Durango - 07:23:14 MST / 17:20:43 MST
Alamosa - 07:15:41 MST / 17:12:18 MST

Grand Junction (KGJX) 01/19/18 01:46 UTC
Radar VAD winds      Height      Dir/Spd(kt)
                  11000 FT MSL...213/012
                  10400 FT MSL...227/009

Grand Junction Aviation Discussion
Issued at 2257 UTC Thursday, January 18, 2018

.AVIATION...(For the 00Z TAFS through 00Z Saturday Evening)
Issued at 357 PM MST Thu Jan 18 2018
High clouds will continue to sweep over the area during the next
24 hours as Pacific moisture streams over the collapsing ridge.
However, this will not impact TAF sites and VFR conditions with
CIGS above ILS breakpoints are expected to hold through 00Z
Friday.


* * * * * Arizona * * * * *

KPGA 182327Z 1900/1924 VRB05KT P6SM BKN250
     FM192100 22010G20KT P6SM BKN300
METAR KPGA 190153Z AUTO 22004KT 10SM CLR 07/M05 A3016 RMK AO2 SLP211
       T00721050 TSNO
METAR KPGA 190053Z AUTO 00000KT 6SM HZ CLR 08/M04 A3016 RMK AO2 SLP210
       T00831044 TSNO
METAR KPGA 182353Z AUTO 00000KT 10SM CLR 09/M05 A3016 RMK AO2 SLP208
       T00941050 10106 20067 56019 TSNO

METAR KRQE 190153Z AUTO 10004KT 10SM CLR 04/M08 A3021 RMK AO2 SLP237
       T00441078 TSNO
METAR KRQE 190053Z AUTO 18003KT 10SM CLR 07/M09 A3021 RMK AO2 SLP224
       T00671094 TSNO
METAR KRQE 182353Z AUTO 26006KT 10SM CLR 12/M09 A3021 RMK AO2 SLP211
       T01171089 10144 20061 55003 TSNO

Flagstaff (KFSX) 01/19/18 01:52 UTC
Radar VAD winds      Height      Dir/Spd(kt)
                   8400 FT MSL...238/002

Flagstaff Aviation Discussion
Issued at 2152 UTC Thursday, January 18, 2018

.AVIATION...For the 00Z package...VFR conditions will continue
through the next 24 hours under scattered to broken high clouds.
Surface winds variable to 10 kts over night, becoming SW at 10-20
kts gusting 20-30 kts Friday afternoon. Aviation discussion not
updated for amendments.


* * * * * Utah * * * * *

KSLC 182351Z 1900/2006 16010KT P6SM BKN150 OVC200
     FM190500 17016G23KT P6SM SCT100 BKN150
     FM191100 18018G28KT P6SM SCT070 BKN110
     FM191900 24016G25KT P6SM VCSH SCT040 BKN080
     FM192300 31016KT P6SM -RASN SCT030 BKN060
     FM200100 35012KT 3SM -SN BKN030 OVC050
METAR KSLC 190154Z 29005KT 10SM FEW090 BKN160 OVC200 06/02 A2997 RMK AO2
       SLP145 T00610017
METAR KSLC 190054Z 31004KT 10SM FEW100 BKN150 OVC210 10/01 A2998 RMK AO2
       SLP145 T01000011
METAR KSLC 182354Z 13004KT 10SM FEW100 SCT150 BKN200 OVC250 09/02 A2999
       RMK AO2 SLP147 T00940022 10117 20089 58028

KVEL 182332Z 1900/1924 VRB03KT P6SM FEW140 SCT250
     FM191900 20006KT P6SM FEW110 SCT200
     FM192100 20010G18KT P6SM FEW110 SCT200
METAR KVEL 190153Z AUTO 33003KT 10SM CLR 01/M09 A3014 RMK AO2 SLP237
       T00061089
METAR KVEL 190053Z AUTO 25004KT 10SM CLR M01/M09 A3015 RMK AO2 SLP244
       T10061089
METAR KVEL 182353Z AUTO 17003KT 10SM CLR 04/M09 A3016 RMK AO2 SLP235
       T00441094 10061 21006 56015

METAR KPUC 190153Z AUTO 07005KT 10SM CLR 00/M06 A3016 RMK AO2 SLP254
       T00001056
METAR KPUC 190053Z AUTO 00000KT 10SM CLR 01/M06 A3017 RMK AO2 SLP256
       T00111056
METAR KPUC 182353Z AUTO 15004KT 10SM CLR 04/M06 A3018 RMK AO2 SLP249
       T00441056 10067 20028 56012

KCNY 182332Z 1900/1924 VRB03KT P6SM FEW150 FEW250
     FM192000 17007KT P6SM FEW130 SCT250
METAR KCNY 190153Z AUTO 23003KT 10SM CLR 00/M06 A3016 RMK AO2 SLPNO
       T00001056 $
METAR KCNY 190053Z AUTO 26003KT 10SM CLR 02/M07 A3016 RMK AO2 SLPNO
       T00221067 $
METAR KCNY 182353Z AUTO 30003KT 10SM CLR 06/M07 A3017 RMK AO2 SLPNO
       T00561067 56016 $


Salt Lake City (KMTX) 01/19/18 02:00 UTC
Radar VAD winds      Height      Dir/Spd(kt)
                  24000 FT MSL...238/054
                  22000 FT MSL...244/057
                  20000 FT MSL...253/054
                  19000 FT MSL...253/051
                  18000 FT MSL...243/033
                  17000 FT MSL...279/024
                  14000 FT MSL...343/004
                  11000 FT MSL...281/022
                  10900 FT MSL...349/003
                  10000 FT MSL...291/025
                   9000 FT MSL...283/008
                   9000 FT MSL...293/004
                   8000 FT MSL...276/007
                   7600 FT MSL...310/003

Salt Lake City Aviation Discussion
Issued at 0012 UTC Friday, January 19, 2018

.Aviation...Winds at the SLC terminal this afternoon are
northwest, although may become light and variable before coming back
to the south by 01-01z. Winds are expected to strengthen after 07z
this evening and may be gusty at times leading up to a cold front
expected to the airport after 19z.


* * * * * Wyoming * * * * *

KEVW 182351Z 1900/1924 22010KT P6SM BKN130 OVC200
     FM190800 22013G20KT P6SM SCT090 BKN130
     FM191500 24018G28KT P6SM VCSH SCT030 BKN070
     FM191900 24021G30KT 6SM -RASN SCT030 BKN050
     FM192100 25018G25KT 2SM -RASN BKN030=
METAR KEVW 190153Z AUTO 22010KT 10SM FEW110 05/M04 A3002 RMK AO2 SLP154
       T00501039
METAR KEVW 190053Z AUTO 20009KT 10SM CLR 05/M03 A3004 RMK AO2 SLP163
       T00501033
METAR KEVW 182353Z AUTO 22012KT 10SM CLR 07/M03 A3005 RMK AO2 SLP162
       T00671028 10089 20033 56014

KRKS 182325Z 1900/1924 23009KT P6SM BKN250
     FM190900 19011KT P6SM SCT250 WS012/22030KT
     FM191900 20011G20KT P6SM SCT050 BKN200
METAR KRKS 190154Z AUTO 19007KT 10SM CLR 03/M08 A3002 RMK AO2 SLP176
       T00331078
METAR KRKS 190054Z AUTO 17007KT 10SM CLR 04/M08 A3004 RMK AO2 SLP179
       T00391078
METAR KRKS 182354Z AUTO 16007KT 10SM CLR 06/M08 A3006 RMK AO2 SLP181
       T00611083 10100 20033 56015

KRWL 182335Z 1900/1924 23012KT P6SM BKN150
     FM190600 23018G28KT P6SM BKN200
     FM191800 23025G35KT P6SM BKN200
METAR KRWL 190153Z AUTO 21017G22KT 10SM CLR 05/M09 A3004 RMK AO2 PK WND
       23028/0108 SLP165 T00501089
METAR KRWL 190053Z AUTO 22019G26KT 10SM CLR 05/M09 A3006 RMK AO2 PK WND
       21027/0027 SLP166 T00501089
METAR KRWL 182353Z AUTO 22016G24KT 10SM CLR 06/M08 A3007 RMK AO2 SLP173
       T00561083 10083 20056 58014

KLAR 182335Z 1900/1924 22013KT P6SM BKN150
     FM191100 24022G32KT P6SM BKN200
     FM191800 24028G38KT P6SM BKN250
METAR KLAR 190153Z AUTO 23014KT 10SM CLR 04/M10 A3004 RMK AO2 SLP158
       T00391100
METAR KLAR 190053Z AUTO 22010KT 10SM CLR 04/M09 A3005 RMK AO2 SLP162
       T00391089
METAR KLAR 182353Z AUTO 22015KT 10SM CLR 06/M08 A3005 RMK AO2 PK WND
       22026/2331 SLP155 T00561078 10111 20056 55003

KCYS 182335Z 1900/1924 27012KT P6SM BKN150
     FM191100 27015G25KT P6SM BKN200
METAR KCYS 190153Z 24010KT 10SM CLR 09/M08 A2997 RMK AO2 SLP128
       T00891083
METAR KCYS 190053Z 22010KT 10SM CLR 07/M07 A2997 RMK AO2 SLP143
       T00671072
METAR KCYS 182353Z 26009KT 10SM CLR 08/M07 A2998 RMK AO2 SLP133
       T00831067 10150 20083 56003

Riverton (KRIW) 01/19/18 01:54 UTC
Radar VAD winds      Height      Dir/Spd(kt)
                   7000 FT MSL...135/001
                   6500 FT MSL...200/012

Cheyenne (KCYS) 01/19/18 01:47 UTC
Radar VAD winds      Height      Dir/Spd(kt)
                   9000 FT MSL...290/024
                   8000 FT MSL...065/003

Riverton Aviation Discussion
Issued at 2038 UTC Thursday, January 18, 2018

.AVIATION...(For the 00Z TAFS through 00Z Friday afternoon)
Issued at 1226 PM MST Thu Jan 18 2018
West of the Continental Divide...KJAC, KBPI, KPNA and KRKS
VFR conditions to prevail through the forecast period for all sites
except KJAC and KPNA. Strengthening SW flow with increasing moisture
will arrive across northwestern WY late tonight through sun-up
Friday resulting in lowered ceilings and obscured mountains later
this evening, pushing southward across western WY through Friday
morning. This will affect KJAC by/after 08Z Friday with MVFR CIGS
followed by MVFR/IFR conditions in low CIGs and reduced VSBY
by/after 12Z. KPNA will be affected sometime after 15Z Friday AND
KBPI after 22Z Friday, primarily by lowered CIGS and VCSH.
Additionally, strengthening SW flow aloft will result in areas of
LLWS developing across the forecast area, including all TAF sites,
this evening.
East of the Continental Divide...KCPR, KCOD, KRIW, KLND, and KWRL
VFR conditions to prevail through the forecast period for all TAF
sites. Surface southwest winds at 15-35kts with gusts 40-50kts will
also continue vicinity 50sm NE KRKS-KCPR through Friday morning.
Additionally, areas of LLWS will continue (near KCOD) or be on the
increase at all other TAF sites by this evening.
Please see individual terminal sites for more details. Additionally,
the Aviation Weather Center will have the latest information on
icing and turbulence forecasts.

Cheyenne Aviation Discussion
Issued at 2145 UTC Thursday, January 18, 2018

.AVIATION...(For the 18Z TAFS through Friday morning)
VFR conditions expected this afternoon and tonight. SCT to BKN high
to mid level clouds with CIGS above 15000 ft AGL are expected. West
to southwest winds will become breezy at times from KCYS to KRWL,
with occasional gusts from 25 to 30 kt.


* * * * * Nebraska * * * * *

METAR KIBM 190155Z AUTO 25008KT 10SM CLR 04/M06 A2994 RMK AO2
       T00381057
METAR KIBM 190135Z AUTO 25008KT 10SM CLR 04/M05 A2994 RMK AO2
       T00361046
METAR KIBM 190115Z AUTO 24008KT 10SM CLR 05/M04 A2994 RMK AO2
       T00501038

KSNY 182335Z 1900/1924 26008KT P6SM BKN150
     FM191100 30011KT P6SM BKN200
METAR KSNY 190153Z AUTO 24007KT 10SM CLR 01/M06 A2992 RMK AO2 SLP156
       T00111056
METAR KSNY 190053Z AUTO 23008KT 10SM CLR 02/M06 A2992 RMK AO2 SLP160
       T00171056
METAR KSNY 182353Z AUTO 23008KT 10SM CLR 06/M05 A2992 RMK AO2 SLP152
       T00561050 10172 20050 56005

METAR KOGA 190155Z AUTO 00000KT 10SM CLR 01/M03 A2989 RMK AO2
       T00121027
METAR KOGA 190135Z AUTO 00000KT 10SM CLR 03/M03 A2990 RMK AO2
       T00311027
METAR KOGA 190115Z AUTO 22003KT 10SM CLR 03/M03 A2990 RMK AO2
       T00291029

METAR KIML 190153Z AUTO 19004KT 10SM CLR 03/M03 A2990 RMK AO2 SLP151
       T00331033
METAR KIML 190053Z AUTO 18004KT 10SM CLR 03/M03 A2991 RMK AO2 SLP155
       T00331033
METAR KIML 182353Z AUTO 00000KT 10SM CLR 07/M03 A2992 RMK AO2 SLP155
       T00671028 10133 20067 56003

KMCK 182322Z 1900/1924 23005KT P6SM BKN200
     FM192300 29004KT P6SM FEW250
METAR KMCK 190153Z AUTO 24004KT 10SM CLR 04/M04 A2990 RMK AO2 SLP152
       T00391039
METAR KMCK 190053Z AUTO 00000KT 10SM CLR 06/M04 A2992 RMK AO2 SLP156
       T00611039
METAR KMCK 182353Z AUTO 00000KT 10SM CLR 07/M04 A2993 RMK AO2 SLP158
       T00671039 10111 20056 55002

North Platte (KLNX) 01/19/18 01:49 UTC
Radar VAD winds      Height      Dir/Spd(kt)
                   4000 FT MSL...268/001

North Platte Aviation Discussion
Issued at 2327 UTC Thursday, January 18, 2018

.AVIATION...(For the 00Z TAFS through 00Z Friday evening)
Issued at 527 PM CST Thu Jan 18 2018
Abundant upper level moisture will continue to stream into the
Central and Northern Plains overnight into Friday morning. This
will lead to broken CIGS around 25000 FT AGL through midday
Friday. Skies will scatter out some Friday afternoon. Winds will
be from the west or west northwest at under 10 KTS over the next
24 hours.


* * * * * Kansas * * * * *

KGLD 182322Z 1900/1924 19007KT P6SM BKN250
     FM190200 23008KT P6SM SCT250
     FM191900 26009KT P6SM FEW250
     FM192200 29005KT P6SM FEW250
METAR KGLD 190153Z AUTO 22009KT 10SM CLR 07/M11 A2994 RMK AO2 SLP151
       T00721111
METAR KGLD 190053Z AUTO 22008KT 10SM CLR 09/M12 A2995 RMK AO2 SLP153
       T00941117
METAR KGLD 182353Z AUTO 21007KT 10SM CLR 11/M11 A2995 RMK AO2 SLP151
       T01111111 10172 20089 55003

KGCK 182335Z 1900/1924 20009KT P6SM SCT250
     FM191700 20012G17KT P6SM SKC
METAR KGCK 190154Z 16005KT 10SM CLR 03/M11 A2998 RMK AO2 SLP183
       T00331106
METAR KGCK 190054Z 16008KT 10SM CLR 07/M10 A2998 RMK AO2 SLP176
       T00671100
METAR KGCK 182354Z 16009KT 10SM CLR 09/M12 A2998 RMK AO2 SLP173
       T00891122 10167 20089 56007

METAR KLBL 190156Z AUTO 21010KT 10SM CLR 05/M12 A3001 RMK AO2 SLP188
       T00501117
METAR KLBL 190056Z AUTO 18010KT 10SM CLR 06/M11 A3001 RMK AO2 SLP186
       T00561111
METAR KLBL 182356Z AUTO 18010KT 10SM CLR 07/M12 A3001 RMK AO2 SLP182
       T00721122 10156 20072 57012

METAR KEHA 190155Z AUTO 21012KT 10SM CLR 05/M10 A3000 RMK AO2
       T00521100
METAR KEHA 190135Z AUTO 21012KT 10SM CLR 06/M10 A3000 RMK AO2
       T00611098
METAR KEHA 190115Z AUTO 20011KT 10SM CLR 05/M11 A3000 RMK AO2
       T00521106

Goodland (KGLD) 01/19/18 01:56 UTC
Radar VAD winds      Height      Dir/Spd(kt)
                   6400 FT MSL...239/002
                   6000 FT MSL...190/000

Dodge City (KDDC) 01/19/18 01:55 UTC
Radar VAD winds      Height      Dir/Spd(kt)
                  10500 FT MSL...297/001
                   7000 FT MSL...292/005
                   5300 FT MSL...288/003

Goodland Aviation Discussion
Issued at 2320 UTC Thursday, January 18, 2018

.AVIATION...(For the 00Z TAFS through 00Z Friday evening)
Issued at 420 PM MST Thu Jan 18 2018
VFR conditions prevail at both TAF sites this evening with some high
cirrus persisting into the evening. Southwest winds will continue
with a trend toward the west and eventually northwest with speeds
generally in the 5 to 10 knot range.

Dodge City Aviation Discussion
Issued at 2359 UTC Thursday, January 18, 2018

.AVIATION...(For the 00Z TAFS through 00Z Friday evening)
Issued at 556 PM CST Thu Jan 18 2018
South to southwesterly winds will persist through the period
with the strongest winds in the afternoon. VFR conditions can be
expected with clear skies.


* * * * * Texas/Oklahoma * * * * *

KGUY 182320Z 1900/1924 18008KT P6SM BKN300
     FM191800 21016KT P6SM SCT300=
METAR KGUY 190153Z AUTO 19007KT 10SM CLR 03/M15 A3000 RMK AO2 SLP178
       T00281150
METAR KGUY 190053Z AUTO 20009KT 10SM CLR 06/M16 A3000 RMK AO2 SLP174
       T00561156
METAR KGUY 182353Z AUTO 18009KT 10SM CLR 12/M16 A3000 RMK AO2 SLP163
       T01171161 10183 20111 56008

KDHT 182320Z 1900/1924 18008KT P6SM SCT300
     FM191800 22016KT P6SM SCT300
METAR KDHT 190153Z AUTO 23010KT 10SM CLR 01/M14 A3004 RMK AO2 SLP205
       T00061139
METAR KDHT 190053Z AUTO 21010KT 10SM CLR 02/M14 A3006 RMK AO2 SLP207
       T00171144
METAR KDHT 182353Z AUTO 18009KT 10SM CLR 07/M14 A3005 RMK AO2 SLP194
       T00721144 10167 20072 56006

Amarillo (KAMA) 01/19/18 01:48 UTC
Radar VAD winds      Height      Dir/Spd(kt)
                  16000 FT MSL...228/001
                  15000 FT MSL...267/001
                  14000 FT MSL...000/001
                  13000 FT MSL...267/002
                  12000 FT MSL...278/007
                  11500 FT MSL...264/006
                  11000 FT MSL...254/005
                  10000 FT MSL...268/004
                   9800 FT MSL...269/004
                   9000 FT MSL...266/005
                   8100 FT MSL...268/005
                   8000 FT MSL...219/008
                   7000 FT MSL...270/007
                   6400 FT MSL...249/005
                   6000 FT MSL...174/016
                   5000 FT MSL...221/022
                   4600 FT MSL...227/029
                   4000 FT MSL...205/013
                   4000 FT MSL...208/015

Amarillo Aviation Discussion
Issued at 2305 UTC Thursday, January 18, 2018

.AVIATION...
VFR conditions to prevail for the duration of the 00Z TAF cycle.
Light southerly winds overnight will slowly ramp up to near 15kt
from the southwest by the afternoon.


* * * * * New Mexico * * * * *

KFMN 182320Z 1900/1924 27007KT P6SM SCT250
     FM190200 VRB04KT P6SM BKN250
     FM190700 08007KT P6SM BKN200
     FM191900 13006KT P6SM BKN200
METAR KFMN 190153Z 11004KT 10SM CLR 03/M08 A3019 RMK AO2 SLP256
       T00281078
METAR KFMN 190053Z 29003KT 10SM CLR 04/M08 A3019 RMK AO2 SLP253
       T00441078
METAR KFMN 182353Z 25007KT 10SM CLR 07/M07 A3019 RMK AO2 SLP249
       T00671072 10083 21006 56011

METAR KSKX 190156Z AUTO 08007KT 10SM CLR M01/M14 A3022 RMK AO2 SLPNO
       T10061139 FZRANO $
METAR KSKX 190056Z AUTO 09006KT 10SM CLR 01/M17 A3020 RMK AO2 SLPNO
       T00111172 FZRANO $
METAR KSKX 182356Z AUTO 14005KT 10SM CLR 08/M17 A3019 RMK AO2 SLPNO
       6//// T00781167 10111 20050 56005 $

KLVS 182320Z 1900/1924 18010KT P6SM BKN250
     FM190200 28007KT P6SM BKN250
     FM190600 03005KT P6SM SCT250
     FM191700 26010G18KT P6SM SCT200
     FM192100 27014G24KT P6SM SCT200
METAR KLVS 190153Z AUTO 18010KT 10SM CLR 02/M14 A3011 RMK AO2 SLP203
       T00221144
METAR KLVS 190053Z AUTO 18011KT 10SM CLR 04/M15 A3011 RMK AO2 SLP198
       T00391150
METAR KLVS 182353Z AUTO 19009KT 10SM CLR 09/M15 A3012 RMK AO2 SLP183
       6//// T00891150 10144 20089 53000

METAR KRTN 190153Z AUTO 00000KT 10SM CLR 02/M17 A3009 RMK AO2 SLP215
       T00221167
METAR KRTN 190053Z AUTO 29004KT 10SM CLR 04/M17 A3007 RMK AO2 SLP205
       T00441172
METAR KRTN 182353Z AUTO 23005KT 10SM CLR 09/M19 A3007 RMK AO2 SLP187
       T00941194 10150 20078 56001

METAR KCAO 190155Z AUTO 23007KT 10SM CLR 06/M14 A3003 RMK AO2 SLP170
       T00561139
METAR KCAO 190055Z AUTO 22009KT 10SM CLR 06/M17 A3004 RMK AO2 SLP178
       T00611167
METAR KCAO 182355Z AUTO 20009KT 10SM CLR 08/M16 A3004 RMK AO2 SLP172
       T00831156 10172 20083 55001

Albuquerque (KABX) 01/19/18 01:52 UTC
Radar VAD winds      Height      Dir/Spd(kt)
                   9000 FT MSL...016/004
                   8600 FT MSL...022/003
                   6800 FT MSL...002/004

Albuquerque Aviation Discussion
Issued at 2243 UTC Thursday, January 18, 2018

.AVIATION...
18Z TAF CYCLE
VFR conditions will prevail through the TAF period with generally
light winds. KSAF will have moderate drainage winds again late
tonight through most of Friday morning. High SCT-BKN deck will
move from north to south through the forecast period.
40

* * * * * Winds and Temperatures Aloft Forecasts * * * * *

DATA BASED ON 190000Z
VALID 190600Z   FOR USE 0500-0900Z. TEMPS NEG ABV 24000
FT  3000    6000   9000    12000   18000   24000  30000  34000  39000
SLC      2016    2229+04 2430-01 2452-16 2464-27 257243 257752 268062
BCE                      2530+02 2538-14 2543-25 264241 254452 255063
LND              2337+05 2441-01 2555-15 2560-26 266542 256852 267463
RKS              2422    2432-01 2549-16 2558-26 255942 256252 266963
GJT              2216+04 2423+00 2634-14 2639-26 263741 273752 274264
FMN              3013+04 2915+02 2821-13 2823-26 282342 301752 322363
ABQ              3119+05 3215+02 3420-12 3422-26 362143 351952 012863
MBW              2530    2530+00 2639-14 2644-27 264642 275352 276264
DEN              2312+08 2613+02 2721-14 2826-27 283442 283153 304164
PUB              2308+08 2707+03 3114-13 3118-27 302443 321652 342564
ALS                      3011+02 3118-13 3121-26 312042 331253 352464
TCC      2611    2806+07 3507+02 0220-13 0129-27 043643 053553 013864
BFF      2933    2714+08 2719+01 2727-15 2737-27 274543 285053 295865
GLD      2512    3310+07 2907+02 3211-14 3221-27 312343 332853 333664
GCK      2412+11 2706+07 0207+02 3516-14 3622-27 022643 013653 363465
GAG      2513+10 2712+05 3506+00 0114-15 0119-28 044243 045253 034566
AMA      2414    2612+05 3105+00 0316-14 0227-27 044343 054453 033566
---------------------------------------------------------------------

DATA BASED ON 190000Z
VALID 191200Z   FOR USE 0900-1800Z. TEMPS NEG ABV 24000
FT  3000    6000   9000    12000   18000   24000  30000  34000  39000
SLC      2016    2225+02 2437-03 2462-17 2476-28 248443 248953 259763
BCE                      2437+00 2548-15 2552-26 255541 256052 257263
LND              2541+03 2548-02 2566-14 2570-26 257842 257452 257763
RKS              2529    2539-02 2561-16 2567-27 257443 258052 258363
GJT              2327+03 2532-01 2542-15 2649-26 255142 255552 277363
FMN              2713+04 2622+01 2730-13 2633-26 272941 272951 273363
ABQ              3016+06 3018+03 2917-12 2919-26 301542 311552 331863
MBW              2550    2647+00 2651-14 2652-25 265642 266052 266463
DEN              2616+09 2724+03 2629-14 2637-27 274242 274752 275164
PUB              2722+10 2721+03 2620-13 2729-27 283042 273152 293764
ALS                      2820+03 2624-13 2730-26 272641 272552 293063
TCC      2409    2807+09 2908+03 3515-12 3520-25 011042 021353 012864
BFF      2628    2528+08 2533+01 2641-15 2747-27 275542 275953 276464
GLD      2113    2308+08 2420+03 2723-14 2828-27 283542 283452 304364
GCK      2313+12 2411+09 2407+02 3114-13 3116-26 312842 322652 333564
GAG      2319+11 2412+06 2405+01 3614-13 0121-26 012543 013253 364064
AMA      2319    2412+07 2505+02 0115-13 0126-26 042243 023053 013964
---------------------------------------------------------------------

DATA BASED ON 190000Z
VALID 200000Z   FOR USE 1800-0500Z. TEMPS NEG ABV 24000
FT  3000    6000   9000    12000   18000   24000  30000  34000  39000
SLC      3208    2317-03 2231-08 2477-19 2492-29 239943 740752 740060
BCE                      2347-04 2467-16 2372-27 237842 238051 238161
LND              2531-01 2540-07 2473-20 2490-28 249643 740252 740160
RKS              2523    2442-07 2477-18 2484-29 249343 249952 249361
GJT              2225+02 2442-03 2456-16 2468-28 247442 247751 226162
FMN              2513+05 2630+00 2540-15 2550-26 244942 245351 235062
ABQ              2718+07 2825+02 2636-13 2435-26 243442 243451 243162
MBW              2545    2659-05 2679-16 2571-25 247641 247251 246763
DEN              2412+06 2626-01 2651-13 2541-24 244742 255552 265364
PUB              2830+09 2833+03 2629-13 2535-26 254243 264652 265964
ALS                      2733+02 2639-14 2543-26 243942 243551 254263
TCC      2715    3116+11 3016+04 2723-12 2722-26 262942 272151 292463
BFF      2833    2736+04 2745-01 2652-16 2558-28 257243 257953 258064
GLD      3320    3118+08 2720+02 2636-14 2640-27 264642 274952 275464
GCK      2718+16 2822+10 2819+03 2628-13 2629-26 273542 283952 284864
GAG      2618+15 2614+11 2712+04 2816-13 2819-26 292842 302752 313363
AMA      2614    2815+11 2914+05 2817-13 2819-26 282542 292151 312563
---------------------------------------------------------------------

This product is updated automatically at approximately 10, 30 and 50
minutes after each hour, 24 hours per day, 7 days per week.  It may
become unavailable at times due to system outages without prior notice.
Users are advised to check the time at the top of the product to ensure
that it is current.  Furthermore, content and format of the product are
subject to change without prior notice.

Comments and suggestions are welcome and should be directed to one of
the addresses or phone numbers shown at the bottom of this page.  In
order to expedite a response to comments or suggestions, be sure to
mention your interest in the hot-air balloon forecast.



USA.gov is the U.S. government's official web portal to all federal, state and local government web resources and services.